createdAt,value
2022-12-11T00:00:25.815Z,11.77
2022-12-11T00:02:53.202Z,11.10
2022-12-11T00:05:19.900Z,11.30
2022-12-11T00:07:46.625Z,10.60
2022-12-11T00:10:13.283Z,9.83
2022-12-11T00:12:39.931Z,9.70
2022-12-11T00:15:07.220Z,9.83
2022-12-11T00:17:34.062Z,9.50
2022-12-11T00:20:00.664Z,9.70
2022-12-11T00:22:27.270Z,9.93
2022-12-11T00:24:53.947Z,9.50
2022-12-11T00:27:20.518Z,9.00
2022-12-11T00:29:47.061Z,9.73
2022-12-11T00:32:13.656Z,8.77
2022-12-11T00:34:40.382Z,8.77
2022-12-11T00:37:07.080Z,9.03
2022-12-11T00:39:33.751Z,8.80
2022-12-11T00:42:00.723Z,8.83
2022-12-11T00:44:27.273Z,8.03
2022-12-11T00:46:53.826Z,7.43
2022-12-11T00:49:20.544Z,9.03
2022-12-11T00:51:47.109Z,8.63
2022-12-11T00:54:14.627Z,8.17
2022-12-11T00:56:41.210Z,8.23
2022-12-11T00:59:07.982Z,7.93
2022-12-11T01:01:35.015Z,7.77
2022-12-11T01:04:01.695Z,7.30
2022-12-11T01:06:28.720Z,7.60
2022-12-11T01:09:14.965Z,7.90
2022-12-11T01:11:42.929Z,7.80
2022-12-11T01:14:10.882Z,8.27
2022-12-11T01:16:37.691Z,7.63
2022-12-11T01:19:04.455Z,7.77
2022-12-11T01:21:31.202Z,7.60
2022-12-11T01:23:57.875Z,7.57
2022-12-11T01:26:24.539Z,8.40
2022-12-11T01:28:51.874Z,7.83
2022-12-11T01:31:20.029Z,7.27
2022-12-11T01:33:46.668Z,7.40
2022-12-11T01:36:19.497Z,7.87
2022-12-11T01:38:47.954Z,7.30
2022-12-11T01:41:15.536Z,8.23
2022-12-11T01:43:59.917Z,7.80
2022-12-11T01:46:27.759Z,8.43
2022-12-11T01:48:55.966Z,8.20
2022-12-11T01:51:24.032Z,7.67
2022-12-11T01:54:00.855Z,8.33
2022-12-11T01:56:31.725Z,8.10
2022-12-11T01:59:06.831Z,8.23
2022-12-11T02:02:09.164Z,7.33
2022-12-11T02:04:38.586Z,8.20
2022-12-11T02:07:05.847Z,7.63
2022-12-11T02:09:35.107Z,8.00
2022-12-11T02:12:07.704Z,7.90
2022-12-11T02:14:49.484Z,7.77
2022-12-11T02:17:26.144Z,8.27
2022-12-11T02:20:15.013Z,8.20
2022-12-11T02:23:12.193Z,7.37
2022-12-11T02:25:57.838Z,7.80
2022-12-11T02:28:27.356Z,7.60
2022-12-11T02:31:10.492Z,6.70
2022-12-11T02:33:45.749Z,8.13
2022-12-11T02:36:18.279Z,7.40
2022-12-11T02:38:50.751Z,6.93
2022-12-11T02:41:19.916Z,6.70
2022-12-11T02:43:48.215Z,7.40
2022-12-11T02:46:17.853Z,7.37
2022-12-11T02:48:47.379Z,7.60
2022-12-11T02:51:16.496Z,8.07
2022-12-11T02:53:44.758Z,7.43
2022-12-11T02:56:16.667Z,6.83
2022-12-11T02:58:50.685Z,7.17
2022-12-11T03:01:20.620Z,6.50
2022-12-11T03:03:47.796Z,6.77
2022-12-11T03:06:18.388Z,7.00
2022-12-11T03:11:12.521Z,7.63
2022-12-11T03:13:42.592Z,7.40
2022-12-11T03:16:17.962Z,8.25
2022-12-11T03:18:53.736Z,7.83
2022-12-11T03:21:30.266Z,7.50
2022-12-11T03:24:14.703Z,7.90
2022-12-11T03:26:54.469Z,7.87
2022-12-11T03:29:31.811Z,7.93
2022-12-11T03:32:04.614Z,8.10
2022-12-11T03:34:36.851Z,7.67
2022-12-11T03:37:05.653Z,8.20
2022-12-11T03:39:37.822Z,8.33
2022-12-11T03:42:09.691Z,7.67
2022-12-11T03:44:36.923Z,7.30
2022-12-11T03:47:07.371Z,8.33
2022-12-11T03:52:06.287Z,7.50
2022-12-11T03:54:34.963Z,8.63
2022-12-11T03:57:04.338Z,7.97
2022-12-11T03:59:31.490Z,8.23
2022-12-11T04:01:58.395Z,8.57
2022-12-11T04:04:25.499Z,8.20
2022-12-11T04:06:52.221Z,8.83
2022-12-11T04:09:18.887Z,8.57
2022-12-11T04:11:45.639Z,8.63
2022-12-11T04:14:32.998Z,8.47
2022-12-11T04:17:00.810Z,7.93
2022-12-11T04:19:46.585Z,9.40
2022-12-11T04:22:34.536Z,8.70
2022-12-11T04:25:02.425Z,9.37
2022-12-11T04:27:49.182Z,8.33
2022-12-11T04:30:23.444Z,8.40
2022-12-11T04:32:50.544Z,8.73
2022-12-11T04:35:17.755Z,9.10
2022-12-11T04:37:44.518Z,7.70
2022-12-11T04:40:14.222Z,8.03
2022-12-11T04:42:41.380Z,9.32
2022-12-11T04:45:09.725Z,8.80
2022-12-11T04:47:38.869Z,8.37
2022-12-11T04:50:09.150Z,8.60
2022-12-11T04:52:35.826Z,8.25
2022-12-11T04:55:04.993Z,8.50
2022-12-11T04:57:31.642Z,7.80
2022-12-11T04:59:58.216Z,8.43
2022-12-11T05:02:24.891Z,8.20
2022-12-11T05:04:51.479Z,8.13
2022-12-11T05:07:18.224Z,8.90
2022-12-11T05:09:44.775Z,8.47
2022-12-11T05:12:11.408Z,8.10
2022-12-11T05:14:38.088Z,8.03
2022-12-11T05:17:04.630Z,8.60
2022-12-11T05:19:31.366Z,8.80
2022-12-11T05:21:57.905Z,8.93
2022-12-11T05:24:24.486Z,8.20
2022-12-11T05:26:51.158Z,7.97
2022-12-11T05:29:17.696Z,8.50
2022-12-11T05:31:44.337Z,8.53
2022-12-11T05:34:11.142Z,8.53
2022-12-11T05:36:37.768Z,8.40
2022-12-11T05:39:05.001Z,9.13
2022-12-11T05:41:32.896Z,8.03
2022-12-11T05:44:00.217Z,9.60
2022-12-11T05:46:29.992Z,9.10
2022-12-11T05:49:01.984Z,9.48
2022-12-11T05:51:29.796Z,8.53
2022-12-11T05:53:57.804Z,10.83
2022-12-11T05:56:30.586Z,9.53
2022-12-11T05:58:58.250Z,9.07
2022-12-11T06:01:27.952Z,8.40
2022-12-11T06:03:55.954Z,8.73
2022-12-11T06:06:24.050Z,8.60
2022-12-11T06:08:51.916Z,9.63
2022-12-11T06:11:23.790Z,8.77
2022-12-11T06:13:51.894Z,8.20
2022-12-11T06:16:19.434Z,8.83
2022-12-11T06:18:46.384Z,8.40
2022-12-11T06:21:25.982Z,9.47
2022-12-11T06:23:54.816Z,9.20
2022-12-11T06:26:22.068Z,9.50
2022-12-11T06:28:49.529Z,8.80
2022-12-11T06:31:17.847Z,8.83
2022-12-11T06:33:45.040Z,9.53
2022-12-11T06:36:17.616Z,8.73
2022-12-11T06:38:44.929Z,8.80
2022-12-11T06:41:12.195Z,9.83
2022-12-11T06:43:40.389Z,8.83
2022-12-11T06:46:09.974Z,8.47
2022-12-11T06:48:38.081Z,8.00
2022-12-11T06:51:09.841Z,8.60
2022-12-11T06:53:36.891Z,9.77
2022-12-11T06:56:05.573Z,9.70
2022-12-11T06:58:34.582Z,9.83
2022-12-11T07:01:03.268Z,8.63
2022-12-11T07:03:29.975Z,8.83
2022-12-11T07:06:02.930Z,8.87
2022-12-11T07:08:32.086Z,12.57
2022-12-11T07:11:12.704Z,10.83
2022-12-11T07:16:10.952Z,10.37
2022-12-11T07:18:39.362Z,9.50
2022-12-11T07:21:07.617Z,9.43
2022-12-11T07:23:35.291Z,9.53
2022-12-11T07:26:09.159Z,9.60
2022-12-11T07:28:36.264Z,8.47
2022-12-11T07:31:11.224Z,8.77
2022-12-11T07:33:37.846Z,9.47
2022-12-11T07:36:06.991Z,11.97
2022-12-11T07:38:34.143Z,9.90
2022-12-11T07:41:02.206Z,9.33
2022-12-11T07:43:28.944Z,11.27
2022-12-11T07:45:55.754Z,9.90
2022-12-11T07:48:22.381Z,10.07
2022-12-11T07:50:49.059Z,10.50
2022-12-11T07:53:15.619Z,11.97
2022-12-11T07:55:42.279Z,12.43
2022-12-11T07:58:08.885Z,10.10
2022-12-11T08:00:35.475Z,16.23
2022-12-11T08:03:02.120Z,10.00
2022-12-11T08:05:29.036Z,8.80
2022-12-11T08:07:55.833Z,8.87
2022-12-11T08:10:23.050Z,9.13
2022-12-11T08:12:49.607Z,9.77
2022-12-11T08:15:16.159Z,9.47
2022-12-11T08:17:42.701Z,9.23
2022-12-11T08:20:09.891Z,9.63
2022-12-11T08:22:36.480Z,9.50
2022-12-11T08:25:03.299Z,10.07
2022-12-11T08:27:29.991Z,9.30
2022-12-11T08:29:56.574Z,12.93
2022-12-11T08:32:23.151Z,10.33
2022-12-11T08:34:51.734Z,12.67
2022-12-11T08:37:18.400Z,11.40
2022-12-11T08:39:47.124Z,16.50
2022-12-11T08:42:13.758Z,10.87
2022-12-11T08:44:40.382Z,10.27
2022-12-11T08:47:09.950Z,14.57
2022-12-11T08:49:36.936Z,11.57
2022-12-11T08:52:06.877Z,10.63
2022-12-11T08:54:33.603Z,12.13
2022-12-11T08:57:00.311Z,15.67
2022-12-11T08:59:26.851Z,14.97
2022-12-11T09:01:55.538Z,15.23
2022-12-11T09:04:23.248Z,13.97
2022-12-11T09:06:50.218Z,14.57
2022-12-11T09:09:17.109Z,11.50
2022-12-11T09:11:43.925Z,12.20
2022-12-11T09:14:10.613Z,14.10
2022-12-11T09:16:40.735Z,10.80
2022-12-11T09:19:11.163Z,10.63
2022-12-11T09:21:37.819Z,11.27
2022-12-11T09:24:04.822Z,10.20
2022-12-11T09:26:32.994Z,11.80
2022-12-11T09:28:59.674Z,10.97
2022-12-11T09:31:29.331Z,11.47
2022-12-11T09:33:58.422Z,10.57
2022-12-11T09:36:25.929Z,13.83
2022-12-11T09:38:52.639Z,13.03
2022-12-11T09:41:22.155Z,10.17
2022-12-11T09:43:51.635Z,11.20
2022-12-11T09:46:20.755Z,11.20
2022-12-11T09:48:50.157Z,11.23
2022-12-11T09:51:39.896Z,11.10
2022-12-11T09:54:06.740Z,11.25
2022-12-11T09:56:42.543Z,11.63
2022-12-11T09:59:35.039Z,12.17
2022-12-11T10:02:26.327Z,13.57
2022-12-11T10:04:59.250Z,18.53
2022-12-11T10:07:57.104Z,13.80
2022-12-11T10:10:51.711Z,14.57
2022-12-11T10:13:33.388Z,12.63
2022-12-11T10:16:23.009Z,13.03
2022-12-11T10:18:50.417Z,12.20
2022-12-11T10:21:18.750Z,14.93
2022-12-11T10:23:56.744Z,13.63
2022-12-11T10:26:23.912Z,13.10
2022-12-11T10:28:50.796Z,13.47
2022-12-11T10:31:29.314Z,12.13
2022-12-11T10:34:03.200Z,15.70
2022-12-11T10:36:34.343Z,15.13
2022-12-11T10:39:01.723Z,13.67
2022-12-11T10:41:39.847Z,13.70
2022-12-11T10:44:20.385Z,14.90
2022-12-11T10:49:24.261Z,11.13
2022-12-11T10:51:52.632Z,11.37
2022-12-11T10:54:35.727Z,11.10
2022-12-11T10:57:03.892Z,11.73
2022-12-11T10:59:44.139Z,11.47
2022-12-11T11:02:26.064Z,9.32
2022-12-11T11:04:55.274Z,10.10
2022-12-11T11:07:25.698Z,10.13
2022-12-11T11:12:30.665Z,9.13
2022-12-11T11:15:07.090Z,9.00
2022-12-11T11:17:51.291Z,9.50
2022-12-11T11:20:25.370Z,8.70
2022-12-11T11:25:23.445Z,8.50
2022-12-11T11:27:59.387Z,9.40
2022-12-11T11:30:25.895Z,10.23
2022-12-11T11:32:56.735Z,10.73
2022-12-11T11:35:27.141Z,9.53
2022-12-11T11:38:00.694Z,9.63
2022-12-11T11:40:31.081Z,10.60
2022-12-11T11:43:43.833Z,10.82
2022-12-11T11:46:14.491Z,10.90
2022-12-11T11:49:07.603Z,11.60
2022-12-11T11:51:38.926Z,11.40
2022-12-11T11:54:30.412Z,11.00
2022-12-11T11:57:00.827Z,12.03
2022-12-11T12:02:13.929Z,11.30
2022-12-11T12:04:42.239Z,12.02
2022-12-11T12:07:31.100Z,11.93
2022-12-11T12:10:36.908Z,10.87
2022-12-11T12:13:30.203Z,11.37
2022-12-11T12:15:59.634Z,10.93
2022-12-11T12:18:58.104Z,11.70
2022-12-11T12:21:35.122Z,11.47
2022-12-11T12:24:23.560Z,12.10
2022-12-11T12:26:57.430Z,13.00
2022-12-11T12:29:44.302Z,12.50
2022-12-11T12:32:29.093Z,11.70
2022-12-11T12:34:59.628Z,13.13
2022-12-11T12:40:31.958Z,12.47
2022-12-11T12:43:17.200Z,12.03
2022-12-11T12:45:59.247Z,12.33
2022-12-11T12:48:28.211Z,11.47
2022-12-11T12:50:56.954Z,12.13
2022-12-11T12:53:28.755Z,11.40
2022-12-11T12:55:59.067Z,11.63
2022-12-11T12:58:25.609Z,11.85
2022-12-11T13:00:52.631Z,11.03
2022-12-11T13:03:35.819Z,10.87
2022-12-11T13:06:07.816Z,11.57
2022-12-11T13:08:42.754Z,12.20
2022-12-11T13:11:12.487Z,11.73
2022-12-11T13:13:42.247Z,12.05
2022-12-11T13:16:17.997Z,10.45
2022-12-11T13:18:49.887Z,10.90
2022-12-11T13:21:28.651Z,11.23
2022-12-11T13:24:12.704Z,11.70
2022-12-11T13:26:40.107Z,12.23
2022-12-11T13:29:06.978Z,12.33
2022-12-11T13:31:36.495Z,12.80
2022-12-11T13:34:20.718Z,11.60
2022-12-11T13:36:52.630Z,11.40
2022-12-11T13:39:27.631Z,12.23
2022-12-11T13:41:59.592Z,12.67
2022-12-11T13:44:41.784Z,12.17
2022-12-11T13:47:14.523Z,13.37
2022-12-11T13:49:44.472Z,13.73
2022-12-11T13:52:18.881Z,12.82
2022-12-11T13:54:51.599Z,13.57
2022-12-11T13:57:21.542Z,13.03
2022-12-11T13:59:53.026Z,12.70
2022-12-11T14:02:26.602Z,13.77
2022-12-11T14:04:58.227Z,15.03
2022-12-11T14:07:32.321Z,13.53
2022-12-11T14:10:33.523Z,13.87
2022-12-11T14:13:04.820Z,14.00
2022-12-11T14:15:37.900Z,12.97
2022-12-11T14:18:05.571Z,12.37
2022-12-11T14:20:34.119Z,12.17
2022-12-11T14:23:25.967Z,13.87
2022-12-11T14:25:58.791Z,11.57
2022-12-11T14:28:27.907Z,12.77
2022-12-11T14:30:59.759Z,12.30
2022-12-11T14:33:32.773Z,11.77
2022-12-11T14:36:01.354Z,12.07
2022-12-11T14:38:43.041Z,12.40
2022-12-11T14:41:23.741Z,14.33
2022-12-11T14:46:32.799Z,13.30
2022-12-11T14:49:03.756Z,12.73
2022-12-11T14:51:38.721Z,14.57
2022-12-11T14:54:06.716Z,13.13
2022-12-11T14:56:34.146Z,13.60
2022-12-11T14:59:06.868Z,14.80
2022-12-11T15:01:36.648Z,14.13
2022-12-11T15:04:22.724Z,13.98
2022-12-11T15:06:51.856Z,13.73
2022-12-11T15:09:27.802Z,15.77
2022-12-11T15:11:59.962Z,15.30
2022-12-11T15:14:27.355Z,16.13
2022-12-11T15:16:57.328Z,15.50
2022-12-11T15:19:32.080Z,17.08
2022-12-11T15:22:04.691Z,17.03
2022-12-11T15:24:42.958Z,14.97
2022-12-11T15:27:33.537Z,15.97
2022-12-11T15:30:00.250Z,15.10
2022-12-11T15:32:33.703Z,15.97
2022-12-11T15:37:33.094Z,13.67
2022-12-11T15:40:02.186Z,14.57
2022-12-11T15:42:36.079Z,13.97
2022-12-11T15:45:06.115Z,16.97
2022-12-11T15:47:32.998Z,15.50
2022-12-11T15:50:15.612Z,15.97
2022-12-11T15:52:42.649Z,15.23
2022-12-11T15:55:09.897Z,15.80
2022-12-11T15:57:37.245Z,15.60
2022-12-11T16:00:06.656Z,15.60
2022-12-11T16:02:33.945Z,15.77
2022-12-11T16:05:00.605Z,17.40
2022-12-11T16:07:27.221Z,16.73
2022-12-11T16:09:53.948Z,19.40
2022-12-11T16:12:20.780Z,17.83
2022-12-11T16:14:47.458Z,18.37
2022-12-11T16:17:15.225Z,16.73
2022-12-11T16:19:43.446Z,17.03
2022-12-11T16:22:12.320Z,16.87
2022-12-11T16:24:39.907Z,17.23
2022-12-11T16:27:07.910Z,18.07
2022-12-11T16:29:36.734Z,17.73
2022-12-11T16:32:04.584Z,20.10
2022-12-11T16:34:31.108Z,22.63
2022-12-11T16:36:58.803Z,25.37
2022-12-11T16:39:26.109Z,24.83
2022-12-11T16:41:52.790Z,21.63
2022-12-11T16:44:21.168Z,20.13
2022-12-11T16:46:48.305Z,19.90
2022-12-11T16:49:15.946Z,22.87
2022-12-11T16:51:43.006Z,20.27
2022-12-11T16:54:11.748Z,19.80
2022-12-11T16:56:39.027Z,20.20
2022-12-11T16:59:06.366Z,18.93
2022-12-11T17:01:33.825Z,18.00
2022-12-11T17:04:00.656Z,18.17
2022-12-11T17:06:27.640Z,19.63
2022-12-11T17:08:54.286Z,22.97
2022-12-11T17:11:24.935Z,21.97
2022-12-11T17:13:55.835Z,22.63
2022-12-11T17:16:24.927Z,24.57
2022-12-11T17:18:52.465Z,28.17
2022-12-11T17:21:20.863Z,28.80
2022-12-11T17:23:47.625Z,29.67
2022-12-11T17:26:16.843Z,32.30
2022-12-11T17:28:43.658Z,32.70
2022-12-11T17:31:16.016Z,31.40
2022-12-11T17:33:46.595Z,29.33
2022-12-11T17:36:20.722Z,27.58
2022-12-11T17:38:48.425Z,23.20
2022-12-11T17:41:20.512Z,24.97
2022-12-11T17:43:53.079Z,19.93
2022-12-11T17:46:21.054Z,20.17
2022-12-11T17:48:48.743Z,20.23
2022-12-11T17:51:21.241Z,21.57
2022-12-11T17:53:53.661Z,21.00
2022-12-11T17:56:20.617Z,18.00
2022-12-11T17:58:47.290Z,19.00
2022-12-11T18:01:14.042Z,18.80
2022-12-11T18:03:41.645Z,19.80
2022-12-11T18:06:12.767Z,19.93
2022-12-11T18:08:39.880Z,21.00
2022-12-11T18:11:08.757Z,20.77
2022-12-11T18:13:43.371Z,22.00
2022-12-11T18:16:17.466Z,24.97
2022-12-11T18:18:45.900Z,25.93
2022-12-11T18:21:18.404Z,23.07
2022-12-11T18:23:45.620Z,21.90
2022-12-11T18:26:16.200Z,25.17
2022-12-11T18:28:43.761Z,24.50
2022-12-11T18:31:11.422Z,25.07
2022-12-11T18:33:39.442Z,24.23
2022-12-11T18:36:06.625Z,25.23
2022-12-11T18:38:34.782Z,23.93
2022-12-11T18:41:07.934Z,27.33
2022-12-11T18:46:52.933Z,22.87
2022-12-11T18:49:22.095Z,22.93
2022-12-11T18:51:48.827Z,22.47
2022-12-11T18:54:25.883Z,21.90
2022-12-11T18:56:53.517Z,22.83
2022-12-11T18:59:26.706Z,22.13
2022-12-11T19:01:53.556Z,20.03
2022-12-11T19:04:20.497Z,22.33
2022-12-11T19:06:48.223Z,23.93
2022-12-11T19:09:15.147Z,25.40
2022-12-11T19:11:48.279Z,22.60
2022-12-11T19:14:22.143Z,21.83
2022-12-11T19:16:50.917Z,20.57
2022-12-11T19:19:20.856Z,22.20
2022-12-11T19:21:49.145Z,19.30
2022-12-11T19:24:23.524Z,20.87
2022-12-11T19:26:51.651Z,19.53
2022-12-11T19:29:25.493Z,19.73
2022-12-11T19:31:58.190Z,19.00
2022-12-11T19:34:25.443Z,17.97
2022-12-11T19:36:53.797Z,18.10
2022-12-11T19:39:20.547Z,17.47
2022-12-11T19:41:49.061Z,16.20
2022-12-11T19:44:16.830Z,18.17
2022-12-11T19:46:43.507Z,18.63
2022-12-11T19:49:11.647Z,17.93
2022-12-11T19:51:40.370Z,17.77
2022-12-11T19:54:10.192Z,19.47
2022-12-11T19:56:41.373Z,19.13
2022-12-11T19:59:11.949Z,22.00
2022-12-11T20:01:38.886Z,19.58
2022-12-11T20:04:10.823Z,18.80
2022-12-11T20:06:43.001Z,20.97
2022-12-11T20:09:12.192Z,20.77
2022-12-11T20:11:41.295Z,19.00
2022-12-11T20:14:09.689Z,18.87
2022-12-11T20:17:09.110Z,17.60
2022-12-11T20:19:29.993Z,20.13
2022-12-11T20:21:59.599Z,19.55
2022-12-11T20:24:26.567Z,21.53
2022-12-11T20:27:02.495Z,20.30
2022-12-11T20:29:32.343Z,18.03
2022-12-11T20:32:01.468Z,19.25
2022-12-11T20:34:28.190Z,17.63
2022-12-11T20:36:56.924Z,17.77
2022-12-11T20:39:41.660Z,17.90
2022-12-11T20:42:09.799Z,16.30
2022-12-11T20:44:44.166Z,17.60
2022-12-11T20:47:15.772Z,17.53
2022-12-11T20:49:42.475Z,18.30
2022-12-11T20:52:10.064Z,19.27
2022-12-11T20:54:41.903Z,19.63
2022-12-11T20:57:09.107Z,19.57
2022-12-11T20:59:36.914Z,21.93
2022-12-11T21:02:05.687Z,21.67
2022-12-11T21:04:38.043Z,20.10
2022-12-11T21:07:05.808Z,21.10
2022-12-11T21:09:32.362Z,18.77
2022-12-11T21:12:01.254Z,18.83
2022-12-11T21:14:28.685Z,20.23
2022-12-11T21:16:55.845Z,21.50
2022-12-11T21:19:25.903Z,21.33
2022-12-11T21:21:52.958Z,19.05
2022-12-11T21:24:26.649Z,25.37
2022-12-11T21:26:56.287Z,25.13
2022-12-11T21:29:26.873Z,25.77
2022-12-11T21:32:02.394Z,24.63
2022-12-11T21:34:33.691Z,25.87
2022-12-11T21:37:01.412Z,30.47
2022-12-11T21:39:28.851Z,27.13
2022-12-11T21:41:55.733Z,26.20
2022-12-11T21:47:09.060Z,30.10
2022-12-11T21:49:35.678Z,30.40
2022-12-11T21:52:03.273Z,29.20
2022-12-11T21:54:30.033Z,29.30
2022-12-11T21:56:57.031Z,30.23
2022-12-11T21:59:23.558Z,33.00
2022-12-11T22:01:50.550Z,28.27
2022-12-11T22:04:17.606Z,32.37
2022-12-11T22:06:47.056Z,24.37
2022-12-11T22:09:15.844Z,27.10
2022-12-11T22:11:42.969Z,23.07
2022-12-11T22:14:12.789Z,23.03
2022-12-11T22:16:42.028Z,21.23
2022-12-11T22:19:09.653Z,24.03
2022-12-11T22:21:36.628Z,24.40
2022-12-11T22:24:09.061Z,23.90
2022-12-11T22:26:35.868Z,20.53
2022-12-11T22:29:02.521Z,21.63
2022-12-11T22:32:08.152Z,23.33
2022-12-11T22:34:40.665Z,22.00
2022-12-11T22:38:56.004Z,21.50
2022-12-11T22:43:20.616Z,26.90
2022-12-11T22:45:50.426Z,26.53
2022-12-11T22:48:18.463Z,23.42
2022-12-11T22:50:45.072Z,27.37
2022-12-11T22:53:11.794Z,23.77
2022-12-11T22:55:40.050Z,25.23
2022-12-11T22:58:07.108Z,26.63
2022-12-11T23:00:34.165Z,26.57
2022-12-11T23:03:02.184Z,26.90
2022-12-11T23:05:29.326Z,24.00
2022-12-11T23:07:56.034Z,24.57
2022-12-11T23:10:22.839Z,26.07
2022-12-11T23:12:50.730Z,22.67
2022-12-11T23:15:18.773Z,24.17
2022-12-11T23:17:45.641Z,22.70
2022-12-11T23:20:12.591Z,25.33
2022-12-11T23:22:39.199Z,22.13
2022-12-11T23:25:06.263Z,23.23
2022-12-11T23:27:33.227Z,23.17
2022-12-11T23:29:59.930Z,23.63
2022-12-11T23:32:26.618Z,23.40
2022-12-11T23:34:54.221Z,21.67
2022-12-11T23:37:21.208Z,22.17
2022-12-11T23:39:47.937Z,20.70
2022-12-11T23:42:15.696Z,21.47
2022-12-11T23:44:43.467Z,21.07
2022-12-11T23:47:10.172Z,21.10
2022-12-11T23:49:36.794Z,20.40
2022-12-11T23:52:03.417Z,21.60
2022-12-11T23:54:30.033Z,19.30
2022-12-11T23:56:56.654Z,20.97
2022-12-11T23:59:23.459Z,20.77
